Time;durP1;ratioP1;P1;durP2;ratioP2;P2;SDS_P1;SDS_P2;PMS_P1;PMS_P2;Temp;Humidity;BMP_temperature;BMP_pressure;BME280_temperature;BME280_humidity;BME280_pressure;Samples;Min_cycle;Max_cycle;Signal;HPM_P1;HPM_P2
2021/03/22 00:01:09;;;;;;;28.33;9.50;;;3.10;99.90;;;;;;5006435;28;20081;-78
2021/03/22 00:03:35;;;;;;;26.27;9.38;;;3.20;99.90;;;;;;4993754;28;20046;-78
2021/03/22 00:06:03;;;;;;;29.40;9.75;;;3.20;99.90;;;;;;5009765;28;20050;-78
2021/03/22 00:08:30;;;;;;;27.85;10.00;;;3.20;99.90;;;;;;4996114;28;20054;-79
2021/03/22 00:10:57;;;;;;;23.55;9.10;;;3.20;99.90;;;;;;4997093;28;20427;-78
2021/03/22 00:13:25;;;;;;;37.70;9.82;;;3.20;99.90;;;;;;5014007;28;20125;-78
2021/03/22 00:15:55;;;;;;;24.05;9.18;;;3.20;99.90;;;;;;4996446;28;20081;-79
2021/03/22 00:18:25;;;;;;;25.65;9.10;;;3.20;99.90;;;;;;5016830;28;20111;-79
2021/03/22 00:20:52;;;;;;;30.67;8.20;;;3.20;99.90;;;;;;5015587;28;20045;-79
2021/03/22 00:23:19;;;;;;;36.00;8.13;;;3.10;99.90;;;;;;4988266;28;20074;-78
2021/03/22 00:25:46;;;;;;;29.58;8.63;;;3.10;99.90;;;;;;4994784;28;20056;-78
2021/03/22 00:28:13;;;;;;;28.95;9.00;;;3.00;99.90;;;;;;4961804;28;20104;-78
2021/03/22 00:30:42;;;;;;;28.25;8.05;;;3.00;99.90;;;;;;4993207;28;20061;-78
2021/03/22 00:33:10;;;;;;;25.20;6.88;;;2.90;99.90;;;;;;5009808;28;20077;-78
2021/03/22 00:35:37;;;;;;;23.70;7.30;;;2.90;99.90;;;;;;5005559;28;20069;-77
2021/03/22 00:38:04;;;;;;;26.98;7.70;;;3.00;99.90;;;;;;4959523;28;20145;-78
2021/03/22 00:40:34;;;;;;;43.63;9.20;;;3.00;99.90;;;;;;5012971;28;20073;-78
2021/03/22 00:43:00;;;;;;;30.85;7.82;;;3.00;99.90;;;;;;4998148;28;20081;-78
2021/03/22 00:45:32;;;;;;;46.90;8.95;;;2.90;99.90;;;;;;4980191;28;20141;-78
2021/03/22 00:47:58;;;;;;;28.63;7.60;;;2.90;99.90;;;;;;4997759;28;20152;-78
2021/03/22 00:50:28;;;;;;;32.40;8.75;;;2.90;99.90;;;;;;5010482;28;20053;-77
2021/03/22 00:52:54;;;;;;;26.35;6.80;;;2.90;99.90;;;;;;5011051;28;20180;-77
2021/03/22 00:55:22;;;;;;;33.33;7.50;;;2.90;99.90;;;;;;4985747;28;20045;-78
2021/03/22 00:57:48;;;;;;;24.88;7.40;;;2.90;99.90;;;;;;5011058;28;20092;-77
2021/03/22 01:00:28;;;;;;;30.90;7.97;;;2.80;99.90;;;;;;5010390;28;20054;-78
2021/03/22 01:02:55;;;;;;;35.75;7.28;;;2.80;99.90;;;;;;4995496;28;20164;-78
2021/03/22 01:05:23;;;;;;;34.53;7.82;;;2.80;99.90;;;;;;5012697;28;20058;-78
2021/03/22 01:07:50;;;;;;;34.72;8.65;;;2.80;99.90;;;;;;5012518;28;20053;-77
2021/03/22 01:10:46;;;;;;;34.00;8.88;;;2.90;99.90;;;;;;4994073;28;20076;-78
2021/03/22 01:13:23;;;;;;;37.05;9.40;;;2.80;99.90;;;;;;5015356;28;20129;-78
2021/03/22 01:15:50;;;;;;;32.45;7.13;;;2.90;99.90;;;;;;5014820;28;20046;-78
2021/03/22 01:18:28;;;;;;;33.60;8.50;;;2.90;99.90;;;;;;4995966;28;20499;-76
2021/03/22 01:21:00;;;;;;;41.58;8.27;;;2.90;99.90;;;;;;4986598;28;20092;-77
2021/03/22 01:23:26;;;;;;;33.38;8.02;;;2.90;99.90;;;;;;5011879;28;20108;-77
2021/03/22 01:25:53;;;;;;;31.90;7.80;;;3.00;99.90;;;;;;5007435;28;20450;-76
2021/03/22 01:28:20;;;;;;;30.73;8.88;;;2.90;99.90;;;;;;5008432;28;20085;-75
2021/03/22 01:30:58;;;;;;;22.63;7.85;;;2.90;99.90;;;;;;5003084;28;20053;-76
2021/03/22 01:33:27;;;;;;;25.63;8.48;;;2.90;99.90;;;;;;5009230;28;20046;-76
2021/03/22 01:35:58;;;;;;;32.05;8.45;;;2.90;99.90;;;;;;4991236;28;20100;-77
2021/03/22 01:38:26;;;;;;;33.03;7.32;;;3.00;99.90;;;;;;4976433;28;20050;-77
2021/03/22 01:41:23;;;;;;;29.35;8.25;;;3.00;99.90;;;;;;4995045;28;20049;-76
2021/03/22 01:43:59;;;;;;;21.90;7.25;;;2.90;99.90;;;;;;4992689;28;20096;-76
2021/03/22 01:46:40;;;;;;;32.33;8.65;;;2.80;99.90;;;;;;4977517;28;20734;-77
2021/03/22 01:49:07;;;;;;;28.15;8.27;;;2.80;99.90;;;;;;5004124;28;20050;-76
2021/03/22 01:51:35;;;;;;;35.20;9.30;;;2.80;99.90;;;;;;5004186;28;20141;-77
2021/03/22 01:54:02;;;;;;;35.20;8.20;;;2.80;99.90;;;;;;4989234;28;20568;-77
2021/03/22 01:56:33;;;;;;;37.72;8.75;;;2.80;99.90;;;;;;4989480;28;20061;-76
2021/03/22 01:59:00;;;;;;;27.17;7.90;;;2.80;99.90;;;;;;4989761;28;20058;-77
2021/03/22 02:01:29;;;;;;;36.53;8.82;;;2.80;99.90;;;;;;4972771;28;20054;-76
2021/03/22 02:03:57;;;;;;;28.42;9.05;;;2.90;99.90;;;;;;4991382;28;20061;-76
2021/03/22 02:06:24;;;;;;;46.30;10.02;;;2.90;99.90;;;;;;5004526;28;20382;-77
2021/03/22 02:08:52;;;;;;;45.00;9.45;;;2.90;99.90;;;;;;5024810;28;20046;-77
2021/03/22 02:11:25;;;;;;;32.30;9.15;;;2.90;99.90;;;;;;5007806;28;20050;-76
2021/03/22 02:13:55;;;;;;;27.65;8.50;;;2.80;99.90;;;;;;4991718;28;20057;-76
2021/03/22 02:16:32;;;;;;;30.73;9.20;;;2.80;99.90;;;;;;5008066;28;20064;-77
2021/03/22 02:19:30;;;;;;;20.48;8.15;;;2.80;99.90;;;;;;4984304;28;20069;-77
2021/03/22 02:22:15;;;;;;;33.95;9.82;;;2.90;99.90;;;;;;5014565;28;20062;-77
2021/03/22 02:25:26;;;;;;;25.65;9.82;;;2.80;99.90;;;;;;5006545;28;20092;-76
2021/03/22 02:28:04;;;;;;;31.80;11.02;;;2.80;99.90;;;;;;4930122;29;20556;-76
2021/03/22 02:30:49;;;;;;;36.67;11.85;;;2.80;99.90;;;;;;4968265;28;20352;-76
2021/03/22 02:33:58;;;;;;;30.88;9.88;;;2.80;99.90;;;;;;4986586;28;20056;-75
2021/03/22 02:36:49;;;;;;;28.95;10.05;;;2.80;99.90;;;;;;5000712;28;20696;-75
2021/03/22 02:39:16;;;;;;;26.10;9.38;;;2.70;99.90;;;;;;4984619;28;20128;-75
2021/03/22 02:41:56;;;;;;;35.40;10.35;;;2.60;99.90;;;;;;5002134;28;20069;-74
2021/03/22 02:44:29;;;;;;;33.08;9.27;;;2.60;99.90;;;;;;4997521;28;20057;-75
2021/03/22 02:47:01;;;;;;;34.03;9.85;;;2.70;99.90;;;;;;5005278;28;20068;-75
2021/03/22 02:49:33;;;;;;;38.85;11.88;;;2.70;99.90;;;;;;4989537;28;20046;-75
2021/03/22 02:52:08;;;;;;;35.35;10.25;;;2.70;99.90;;;;;;4984468;28;20057;-74
2021/03/22 02:54:57;;;;;;;30.83;11.00;;;2.70;99.90;;;;;;4974962;28;20076;-75
2021/03/22 02:57:43;;;;;;;26.10;10.35;;;2.70;99.90;;;;;;4988780;28;20042;-76
2021/03/22 03:00:19;;;;;;;24.70;8.70;;;2.70;99.90;;;;;;4987030;28;20469;-75
2021/03/22 03:02:55;;;;;;;30.13;9.82;;;2.60;99.90;;;;;;4990039;28;20070;-76
2021/03/22 03:05:24;;;;;;;28.85;9.63;;;2.70;99.90;;;;;;4989346;28;20060;-76
2021/03/22 03:07:53;;;;;;;34.53;9.73;;;2.70;99.90;;;;;;4988241;28;20100;-76
2021/03/22 03:10:22;;;;;;;33.00;12.30;;;2.80;99.90;;;;;;5021532;28;20056;-76
2021/03/22 03:12:49;;;;;;;22.13;10.25;;;2.70;99.90;;;;;;5021900;28;20061;-76
2021/03/22 03:15:17;;;;;;;27.05;10.63;;;2.70;99.90;;;;;;4989110;28;20069;-76
2021/03/22 03:17:49;;;;;;;34.30;10.68;;;2.70;99.90;;;;;;4973335;28;20119;-76
2021/03/22 03:20:19;;;;;;;31.67;10.57;;;2.70;99.90;;;;;;4984322;28;20059;-77
2021/03/22 03:22:46;;;;;;;41.13;12.43;;;2.70;99.90;;;;;;5004442;28;20077;-76
2021/03/22 03:25:14;;;;;;;38.20;12.18;;;2.70;99.90;;;;;;4988367;28;20132;-75
2021/03/22 03:27:40;;;;;;;34.58;11.63;;;2.70;99.90;;;;;;4990958;28;20108;-75
2021/03/22 03:30:09;;;;;;;42.55;12.70;;;2.80;99.90;;;;;;4989221;28;20045;-75
2021/03/22 03:32:35;;;;;;;37.53;12.23;;;2.80;99.90;;;;;;4988684;28;20081;-75
2021/03/22 03:35:05;;;;;;;36.47;12.20;;;2.70;99.90;;;;;;4987860;28;20426;-75
2021/03/22 03:37:31;;;;;;;31.00;10.15;;;2.80;99.90;;;;;;4990094;28;20172;-75
2021/03/22 03:39:57;;;;;;;45.20;11.98;;;2.80;99.90;;;;;;5005368;28;20168;-76
2021/03/22 03:42:24;;;;;;;28.38;11.57;;;2.80;99.90;;;;;;5002763;28;20764;-76
2021/03/22 03:44:50;;;;;;;33.53;10.57;;;2.80;99.90;;;;;;4988003;28;20372;-76
2021/03/22 03:47:16;;;;;;;30.60;10.50;;;2.80;99.90;;;;;;5005213;28;20238;-76
2021/03/22 03:49:43;;;;;;;36.63;12.05;;;2.80;99.90;;;;;;5006466;28;20137;-76
2021/03/22 03:52:09;;;;;;;25.80;10.48;;;2.80;99.90;;;;;;4989185;28;20046;-77
2021/03/22 03:54:36;;;;;;;32.50;11.68;;;2.80;99.90;;;;;;4989702;28;20049;-77
2021/03/22 03:57:02;;;;;;;37.58;12.40;;;2.80;99.90;;;;;;4989227;28;20060;-77
2021/03/22 03:59:28;;;;;;;32.03;11.27;;;2.70;99.90;;;;;;5009274;28;20072;-77
2021/03/22 04:01:55;;;;;;;37.88;10.55;;;2.70;99.90;;;;;;5007212;28;20054;-77
2021/03/22 04:04:21;;;;;;;35.53;11.20;;;2.70;99.90;;;;;;4974062;28;20046;-78
2021/03/22 04:06:48;;;;;;;43.67;11.65;;;2.70;99.90;;;;;;4988114;28;20050;-76
2021/03/22 04:09:15;;;;;;;468.15;51.90;;;2.80;99.90;;;;;;4989176;28;20136;-76
2021/03/22 04:11:44;;;;;;;34.05;12.90;;;2.80;99.90;;;;;;4988869;28;20161;-77
2021/03/22 04:14:19;;;;;;;44.55;13.20;;;2.80;99.90;;;;;;5005422;28;20058;-78
2021/03/22 04:16:45;;;;;;;32.45;11.52;;;2.80;99.90;;;;;;4973043;28;20054;-77
2021/03/22 04:19:12;;;;;;;38.15;13.43;;;2.80;99.90;;;;;;4989016;28;20073;-76
2021/03/22 04:21:38;;;;;;;40.78;13.65;;;2.80;99.90;;;;;;4972854;28;20120;-76
2021/03/22 04:24:06;;;;;;;45.28;12.30;;;2.80;99.90;;;;;;5004486;28;20050;-76
2021/03/22 04:26:33;;;;;;;46.50;15.30;;;2.80;99.90;;;;;;5006352;28;20447;-77
2021/03/22 04:28:59;;;;;;;46.08;13.13;;;2.80;99.90;;;;;;4973026;28;20046;-77
2021/03/22 04:31:27;;;;;;;43.33;13.70;;;2.80;99.90;;;;;;4984851;28;20483;-76
2021/03/22 04:33:55;;;;;;;39.00;12.20;;;2.80;99.90;;;;;;5011265;28;20121;-76
2021/03/22 04:36:24;;;;;;;39.03;12.27;;;2.80;99.90;;;;;;4977132;28;20058;-76
2021/03/22 04:38:50;;;;;;;39.65;12.65;;;2.80;99.90;;;;;;4994539;28;20070;-76
2021/03/22 04:41:17;;;;;;;19.40;8.35;;;2.80;99.90;;;;;;5002795;28;20589;-75
2021/03/22 04:43:44;;;;;;;32.78;11.30;;;2.80;99.90;;;;;;5003627;28;20120;-75
2021/03/22 04:46:10;;;;;;;26.60;10.02;;;2.80;99.90;;;;;;5002982;28;20134;-76
2021/03/22 04:48:55;;;;;;;32.33;9.93;;;2.80;99.90;;;;;;4989927;28;20054;-74
2021/03/22 04:51:22;;;;;;;35.38;10.57;;;2.90;99.90;;;;;;4970768;28;20050;-75
2021/03/22 04:53:48;;;;;;;34.78;12.45;;;2.90;99.90;;;;;;4984253;28;20272;-74
2021/03/22 04:56:18;;;;;;;31.98;10.30;;;2.90;99.90;;;;;;4971302;28;20065;-75
2021/03/22 04:58:48;;;;;;;38.30;11.65;;;2.80;99.90;;;;;;4976432;28;20261;-74
2021/03/22 05:01:15;;;;;;;32.00;10.43;;;2.80;99.90;;;;;;5006327;28;20113;-76
2021/03/22 05:03:42;;;;;;;35.00;11.10;;;2.80;99.90;;;;;;4991014;28;20044;-74
2021/03/22 05:06:09;;;;;;;26.75;10.48;;;2.90;99.90;;;;;;4973893;28;20054;-75
2021/03/22 05:08:36;;;;;;;29.50;9.02;;;2.90;99.90;;;;;;4989616;28;20042;-76
2021/03/22 05:11:03;;;;;;;28.42;9.23;;;2.80;99.90;;;;;;4990279;28;20092;-75
2021/03/22 05:13:29;;;;;;;27.58;9.13;;;2.80;99.90;;;;;;4974016;28;20167;-76
2021/03/22 05:15:57;;;;;;;32.13;9.65;;;2.80;99.90;;;;;;4974113;28;20050;-75
2021/03/22 05:18:25;;;;;;;21.63;9.18;;;2.80;99.90;;;;;;4990521;28;20145;-76
2021/03/22 05:20:55;;;;;;;30.65;9.40;;;2.80;99.90;;;;;;4966827;28;20118;-77
2021/03/22 05:23:25;;;;;;;25.08;8.57;;;2.80;99.90;;;;;;4980921;28;20050;-76
2021/03/22 05:25:52;;;;;;;27.20;8.15;;;2.80;99.90;;;;;;4986750;28;20129;-75
2021/03/22 05:28:21;;;;;;;21.58;9.27;;;2.90;99.90;;;;;;4990575;28;20373;-76
2021/03/22 05:30:48;;;;;;;20.60;8.27;;;2.80;99.90;;;;;;4990190;28;20169;-76
2021/03/22 05:33:17;;;;;;;19.85;9.15;;;2.90;99.90;;;;;;5006646;28;20651;-77
2021/03/22 05:35:46;;;;;;;23.45;8.45;;;2.90;99.90;;;;;;4998529;28;20049;-76
2021/03/22 05:38:12;;;;;;;23.73;7.82;;;2.80;99.90;;;;;;4997544;28;20628;-76
2021/03/22 05:40:52;;;;;;;31.48;9.93;;;2.80;99.90;;;;;;5003698;28;20038;-76
2021/03/22 05:43:42;;;;;;;29.85;9.25;;;2.90;99.90;;;;;;4989418;28;20140;-76
2021/03/22 05:46:53;;;;;;;23.73;9.13;;;2.90;99.90;;;;;;5006566;28;20434;-76
2021/03/22 05:49:53;;;;;;;19.17;7.95;;;3.00;99.90;;;;;;5006969;28;20054;-77
2021/03/22 05:52:32;;;;;;;18.55;8.68;;;2.90;99.90;;;;;;5007278;28;20084;-76
2021/03/22 05:55:25;;;;;;;22.58;8.32;;;2.80;99.90;;;;;;5004424;28;20124;-76
2021/03/22 05:58:00;;;;;;;26.67;7.97;;;2.80;99.90;;;;;;4972214;28;20082;-77
2021/03/22 06:00:35;;;;;;;27.27;7.85;;;2.90;99.90;;;;;;4988164;28;20050;-77
2021/03/22 06:03:27;;;;;;;26.45;8.63;;;2.90;99.90;;;;;;4988487;28;20136;-76
2021/03/22 06:06:09;;;;;;;25.40;8.32;;;3.00;99.90;;;;;;4990890;28;20037;-76
2021/03/22 06:08:42;;;;;;;25.92;9.68;;;3.00;99.90;;;;;;5003580;28;20053;-77
2021/03/22 06:11:17;;;;;;;33.17;9.02;;;2.90;99.90;;;;;;4987067;28;20141;-76
2021/03/22 06:13:47;;;;;;;30.35;10.30;;;3.00;99.90;;;;;;4986438;28;20066;-77
2021/03/22 06:16:43;;;;;;;19.30;8.30;;;3.10;99.90;;;;;;5002298;28;20066;-76
2021/03/22 06:19:18;;;;;;;21.60;8.32;;;3.00;99.90;;;;;;5009065;28;20137;-76
2021/03/22 06:21:49;;;;;;;21.95;8.70;;;3.10;99.90;;;;;;4989388;28;20071;-77
2021/03/22 06:24:21;;;;;;;19.10;8.93;;;3.10;99.90;;;;;;4996200;28;20073;-76
2021/03/22 06:26:51;;;;;;;20.20;8.30;;;3.10;99.90;;;;;;4979485;28;20104;-77
2021/03/22 06:29:24;;;;;;;20.55;7.93;;;3.10;99.90;;;;;;5011788;28;20096;-77
2021/03/22 06:31:54;;;;;;;18.58;8.52;;;3.20;99.90;;;;;;4991808;28;20089;-77
2021/03/22 06:34:30;;;;;;;29.42;10.63;;;3.10;99.90;;;;;;4986312;28;20418;-76
2021/03/22 06:36:56;;;;;;;20.60;8.38;;;3.10;99.90;;;;;;4988475;28;20564;-76
2021/03/22 06:39:23;;;;;;;26.08;9.65;;;3.10;99.90;;;;;;4990430;28;20060;-77
2021/03/22 06:41:52;;;;;;;23.83;8.30;;;3.20;99.90;;;;;;4985988;28;20231;-76
2021/03/22 06:44:33;;;;;;;22.50;8.32;;;3.10;99.90;;;;;;4996279;28;20073;-76
2021/03/22 06:47:03;;;;;;;17.33;8.77;;;3.10;99.90;;;;;;4992496;28;20449;-76
2021/03/22 06:49:35;;;;;;;24.35;8.20;;;3.10;99.90;;;;;;4989678;28;20038;-75
2021/03/22 06:52:11;;;;;;;15.63;8.23;;;3.00;99.90;;;;;;4989317;28;20115;-76
2021/03/22 06:54:48;;;;;;;18.67;7.72;;;3.00;99.90;;;;;;5007003;28;20085;-77
2021/03/22 06:57:18;;;;;;;23.85;9.02;;;3.00;99.90;;;;;;4982500;28;20275;-75
2021/03/22 07:00:23;;;;;;;30.75;12.05;;;3.00;99.90;;;;;;4987522;28;20042;-76
2021/03/22 07:02:54;;;;;;;20.57;9.33;;;3.10;99.90;;;;;;5000940;28;20046;-76
2021/03/22 07:05:35;;;;;;;20.52;8.82;;;3.10;99.90;;;;;;4984560;28;20663;-75
2021/03/22 07:08:11;;;;;;;20.70;8.68;;;3.10;99.90;;;;;;5003231;28;20088;-77
2021/03/22 07:10:43;;;;;;;21.20;10.18;;;3.20;99.90;;;;;;4985525;28;20058;-77
2021/03/22 07:13:27;;;;;;;30.63;14.55;;;3.20;99.90;;;;;;5007654;28;20447;-77
2021/03/22 07:16:12;;;;;;;22.70;10.90;;;3.30;99.90;;;;;;5005417;28;20052;-77
2021/03/22 07:18:38;;;;;;;24.67;10.80;;;3.30;99.90;;;;;;4973515;28;20058;-75
2021/03/22 07:21:15;;;;;;;25.85;10.93;;;3.40;99.90;;;;;;4995718;28;20108;-77
2021/03/22 07:23:44;;;;;;;22.05;10.82;;;3.40;99.90;;;;;;4997915;28;20506;-76
2021/03/22 07:26:23;;;;;;;34.05;11.48;;;3.40;99.90;;;;;;5000931;28;20046;-77
2021/03/22 07:29:20;;;;;;;22.30;12.50;;;3.50;99.90;;;;;;5020100;28;20188;-77
2021/03/22 07:32:30;;;;;;;31.48;12.27;;;3.60;99.90;;;;;;5004211;28;20418;-76
2021/03/22 07:35:18;;;;;;;34.35;13.18;;;3.60;99.90;;;;;;4973529;28;20046;-77
2021/03/22 07:38:04;;;;;;;33.38;12.98;;;3.60;99.90;;;;;;5004663;28;20177;-77
2021/03/22 07:40:59;;;;;;;33.30;11.45;;;3.60;99.90;;;;;;5002227;28;20038;-77
2021/03/22 07:43:43;;;;;;;31.00;10.80;;;3.60;99.90;;;;;;4985457;28;20047;-77
2021/03/22 07:46:37;;;;;;;35.40;13.73;;;3.50;99.90;;;;;;4984697;28;20121;-76
2021/03/22 07:49:21;;;;;;;31.48;12.73;;;3.70;99.90;;;;;;4987510;28;20097;-76
2021/03/22 07:52:02;;;;;;;28.60;12.05;;;3.70;99.90;;;;;;5000764;28;20367;-77
2021/03/22 07:54:55;;;;;;;35.58;12.63;;;3.60;99.90;;;;;;4984651;28;20054;-77
2021/03/22 07:57:40;;;;;;;29.42;11.85;;;3.70;99.90;;;;;;4985115;28;20050;-76
2021/03/22 08:00:32;;;;;;;29.70;11.82;;;3.70;99.90;;;;;;4985395;28;20153;-77
2021/03/22 08:03:33;;;;;;;22.23;10.52;;;3.80;99.90;;;;;;4960652;28;20518;-77
2021/03/22 08:06:21;;;;;;;18.00;9.82;;;3.70;99.90;;;;;;4990971;28;20100;-74
2021/03/22 08:09:07;;;;;;;24.25;8.80;;;3.70;99.90;;;;;;4973183;28;20585;-76
2021/03/22 08:11:52;;;;;;;25.85;9.52;;;3.80;99.90;;;;;;4990183;28;20503;-76
2021/03/22 08:14:36;;;;;;;40.03;10.70;;;3.80;99.90;;;;;;4981699;28;20057;-76
2021/03/22 08:17:22;;;;;;;30.03;11.73;;;3.90;99.90;;;;;;4983076;28;20054;-77
2021/03/22 08:20:17;;;;;;;23.33;11.52;;;4.00;99.90;;;;;;4970856;28;20295;-76
2021/03/22 08:22:52;;;;;;;14.25;8.25;;;4.10;99.90;;;;;;4953543;28;20055;-75
2021/03/22 08:25:22;;;;;;;19.02;9.05;;;4.30;99.90;;;;;;4955349;28;20584;-76
2021/03/22 08:28:26;;;;;;;16.75;9.50;;;4.20;99.90;;;;;;5006551;28;20088;-77
2021/03/22 08:31:19;;;;;;;18.55;8.65;;;4.30;99.90;;;;;;5007387;28;20128;-76
2021/03/22 08:34:08;;;;;;;20.92;8.98;;;4.40;99.90;;;;;;4990450;28;20046;-75
2021/03/22 08:36:40;;;;;;;19.95;10.23;;;4.50;99.90;;;;;;4988910;28;20062;-76
2021/03/22 08:39:24;;;;;;;19.25;10.23;;;4.40;99.90;;;;;;4959890;28;20550;-76
2021/03/22 08:41:58;;;;;;;25.02;10.07;;;4.30;99.90;;;;;;4959476;28;20061;-74
2021/03/22 08:44:40;;;;;;;12.90;8.48;;;4.30;99.90;;;;;;4974806;28;20725;-74
2021/03/22 08:47:35;;;;;;;16.05;6.72;;;4.10;99.90;;;;;;4975727;28;20520;-74
2021/03/22 08:50:11;;;;;;;;;;;4.20;99.90;;;;;;4972324;28;20046;-74
2021/03/22 08:53:12;;;;;;;15.75;7.55;;;4.30;99.90;;;;;;4992164;28;20016;-75
2021/03/22 08:55:38;;;;;;;11.98;6.90;;;4.40;99.90;;;;;;4951528;28;20080;-76
2021/03/22 08:58:25;;;;;;;14.57;6.25;;;4.50;99.90;;;;;;4937362;28;20141;-75
2021/03/22 09:00:55;;;;;;;15.27;6.90;;;4.60;99.90;;;;;;4951409;28;20065;-74
2021/03/22 09:03:40;;;;;;;15.30;7.40;;;4.80;99.90;;;;;;4990024;28;20045;-75
2021/03/22 09:06:20;;;;;;;8.95;6.57;;;4.80;99.90;;;;;;4986149;28;20510;-76
2021/03/22 09:08:53;;;;;;;14.30;7.07;;;4.60;99.90;;;;;;4983406;28;20402;-76
2021/03/22 09:11:33;;;;;;;13.88;7.65;;;4.60;99.90;;;;;;4976811;28;20052;-76
2021/03/22 09:14:06;;;;;;;11.20;8.05;;;4.70;99.90;;;;;;4990544;28;20081;-76
2021/03/22 09:16:43;;;;;;;27.23;6.15;;;4.90;99.90;;;;;;5005685;28;20137;-74
2021/03/22 09:19:13;;;;;;;17.35;7.10;;;4.90;99.90;;;;;;5007269;28;20513;-74
2021/03/22 09:21:43;;;;;;;12.88;6.10;;;4.90;99.90;;;;;;5002431;28;20060;-74
2021/03/22 09:24:38;;;;;;;13.27;5.88;;;5.00;99.90;;;;;;5001932;28;20046;-75
2021/03/22 09:27:13;;;;;;;10.73;5.78;;;5.00;99.90;;;;;;4981453;28;20475;-76
2021/03/22 09:29:48;;;;;;;14.48;6.80;;;5.30;99.90;;;;;;4996375;28;20421;-76
2021/03/22 09:32:32;;;;;;;11.15;5.95;;;5.50;99.90;;;;;;5004227;28;20045;-74
2021/03/22 09:35:16;;;;;;;9.57;5.18;;;5.60;99.90;;;;;;5004206;28;20060;-74
2021/03/22 09:37:56;;;;;;;11.55;5.18;;;5.60;99.90;;;;;;5004226;28;20046;-74
2021/03/22 09:40:23;;;;;;;9.60;6.45;;;5.40;99.90;;;;;;4978473;28;20498;-74
2021/03/22 09:43:07;;;;;;;17.33;9.07;;;5.20;99.90;;;;;;5005326;28;20060;-75
2021/03/22 09:45:38;;;;;;;9.88;4.80;;;5.30;99.90;;;;;;4973068;28;20038;-74
2021/03/22 09:48:17;;;;;;;5.57;4.57;;;5.30;99.90;;;;;;4967939;28;20057;-74
2021/03/22 09:50:50;;;;;;;8.15;5.22;;;5.20;99.90;;;;;;4980817;28;20177;-75
2021/03/22 09:53:24;;;;;;;12.50;5.88;;;5.20;99.90;;;;;;4969169;28;20739;-75
2021/03/22 09:55:51;;;;;;;5.72;5.00;;;5.30;99.90;;;;;;4976702;28;20129;-75
2021/03/22 09:58:19;;;;;;;6.57;4.63;;;5.30;99.90;;;;;;4981925;28;20058;-75
2021/03/22 10:00:56;;;;;;;22.77;6.15;;;5.40;99.90;;;;;;4987104;28;20041;-76
2021/03/22 10:03:36;;;;;;;7.32;4.18;;;5.80;99.90;;;;;;4955879;28;20356;-77
2021/03/22 10:06:06;;;;;;;8.35;5.05;;;6.10;99.90;;;;;;4990793;28;20050;-74
2021/03/22 10:08:41;;;;;;;10.25;5.88;;;6.30;99.90;;;;;;4988415;28;20081;-76
2021/03/22 10:11:29;;;;;;;6.70;5.90;;;6.20;99.90;;;;;;4972411;28;20051;-73
2021/03/22 10:14:00;;;;;;;15.80;7.22;;;5.90;99.90;;;;;;4995227;28;20060;-75
2021/03/22 10:16:35;;;;;;;7.75;5.40;;;5.90;99.90;;;;;;4975205;28;20124;-73
2021/03/22 10:19:12;;;;;;;7.68;5.05;;;5.70;99.90;;;;;;5002391;28;20081;-74
2021/03/22 10:21:45;;;;;;;5.38;4.25;;;5.40;99.90;;;;;;5000803;28;20058;-74
2021/03/22 10:24:52;;;;;;;4.20;3.80;;;5.20;99.90;;;;;;4986451;28;20073;-74
2021/03/22 10:27:25;;;;;;;7.10;4.22;;;5.10;99.90;;;;;;4977575;28;20050;-74
2021/03/22 10:30:22;;;;;;;7.07;4.25;;;5.00;99.90;;;;;;4987952;28;20133;-73
2021/03/22 10:33:00;;;;;;;6.05;4.57;;;4.90;99.90;;;;;;5009127;28;20150;-75
2021/03/22 10:35:43;;;;;;;5.40;4.38;;;4.90;99.90;;;;;;4984694;28;20364;-75
2021/03/22 10:38:18;;;;;;;6.20;4.07;;;5.00;99.90;;;;;;4996989;28;20071;-75
2021/03/22 10:40:45;;;;;;;7.25;4.40;;;5.20;99.90;;;;;;4998099;28;20073;-76
2021/03/22 10:43:34;;;;;;;5.30;4.50;;;5.20;99.90;;;;;;4998901;28;20089;-76
2021/03/22 10:46:23;;;;;;;8.52;5.25;;;5.40;99.90;;;;;;5001596;28;20064;-77
2021/03/22 10:49:24;;;;;;;8.07;4.50;;;5.90;99.90;;;;;;5000716;28;20057;-76
2021/03/22 10:51:53;;;;;;;4.88;4.47;;;6.20;99.90;;;;;;4955647;28;20077;-75
2021/03/22 10:54:23;;;;;;;7.18;6.45;;;6.00;99.90;;;;;;5008300;28;20078;-77
2021/03/22 10:56:55;;;;;;;7.97;7.47;;;5.70;99.90;;;;;;5004668;28;20117;-75
2021/03/22 10:59:28;;;;;;;7.63;7.13;;;5.80;99.90;;;;;;5022628;28;20046;-76
2021/03/22 11:01:57;;;;;;;7.80;7.30;;;5.60;99.90;;;;;;4987126;28;20136;-76
2021/03/22 11:04:32;;;;;;;7.20;6.60;;;5.50;99.90;;;;;;4975147;28;20141;-76
2021/03/22 11:07:20;;;;;;;5.63;4.85;;;5.50;99.90;;;;;;5001312;28;20661;-75
2021/03/22 11:10:12;;;;;;;4.45;4.15;;;5.50;99.90;;;;;;4992323;28;20610;-75
2021/03/22 11:12:42;;;;;;;4.10;3.72;;;5.30;99.90;;;;;;5001362;28;20081;-74
2021/03/22 11:15:17;;;;;;;4.20;3.90;;;5.30;99.90;;;;;;4979823;28;20510;-76
2021/03/22 11:17:45;;;;;;;4.20;4.00;;;5.30;99.90;;;;;;4975876;28;20141;-76
2021/03/22 11:20:15;;;;;;;4.90;4.50;;;5.40;99.90;;;;;;4988433;28;20084;-75
2021/03/22 11:22:44;;;;;;;4.88;4.57;;;5.50;99.90;;;;;;5007354;28;20054;-77
2021/03/22 11:25:29;;;;;;;6.30;5.93;;;5.50;99.90;;;;;;4989745;28;20112;-76
2021/03/22 11:28:09;;;;;;;5.25;5.03;;;5.60;99.90;;;;;;5003896;28;20113;-76
2021/03/22 11:30:58;;;;;;;5.65;5.20;;;5.90;99.90;;;;;;4989811;28;20124;-77
2021/03/22 11:33:26;;;;;;;5.05;4.57;;;6.00;99.90;;;;;;5005706;28;20104;-77
2021/03/22 11:36:13;;;;;;;5.50;5.20;;;6.30;99.90;;;;;;5004392;28;20042;-75
2021/03/22 11:38:56;;;;;;;7.35;6.95;;;6.40;99.90;;;;;;5005469;28;20061;-76
2021/03/22 11:41:27;;;;;;;7.75;7.25;;;6.30;99.90;;;;;;5004268;28;20049;-76
2021/03/22 11:44:06;;;;;;;7.93;7.38;;;6.20;99.90;;;;;;4988844;28;20054;-76
2021/03/22 11:46:35;;;;;;;10.20;9.38;;;6.20;99.90;;;;;;4971848;28;20045;-75
2021/03/22 11:49:01;;;;;;;7.35;6.95;;;6.40;99.90;;;;;;5012572;28;20038;-75
2021/03/22 11:51:28;;;;;;;8.32;7.70;;;6.40;99.90;;;;;;5003632;28;20037;-76
2021/03/22 11:54:07;;;;;;;9.07;8.48;;;6.30;99.90;;;;;;4984157;28;20046;-76
2021/03/22 11:56:39;;;;;;;9.52;8.50;;;6.20;99.90;;;;;;4996243;28;20053;-76
2021/03/22 11:59:19;;;;;;;8.40;7.80;;;6.20;99.90;;;;;;4975835;28;20127;-75
2021/03/22 12:02:19;;;;;;;8.65;7.00;;;6.20;99.90;;;;;;4970027;28;20046;-76
2021/03/22 12:04:55;;;;;;;10.25;6.93;;;6.10;99.90;;;;;;5003872;28;20054;-76
2021/03/22 12:07:43;;;;;;;8.30;7.57;;;6.30;99.90;;;;;;5006528;28;20054;-77
2021/03/22 12:10:32;;;;;;;6.22;5.63;;;6.50;99.90;;;;;;5022000;28;20050;-75
2021/03/22 12:13:00;;;;;;;7.88;7.38;;;6.70;99.90;;;;;;5004653;28;20199;-75
2021/03/22 12:15:27;;;;;;;7.20;6.80;;;6.70;99.90;;;;;;5004899;28;20057;-77
2021/03/22 12:17:58;;;;;;;7.75;7.15;;;6.80;99.90;;;;;;5005568;28;20084;-75
2021/03/22 12:20:28;;;;;;;7.97;7.38;;;6.80;99.90;;;;;;4988551;28;20160;-76
2021/03/22 12:22:56;;;;;;;8.38;7.78;;;6.80;99.90;;;;;;5004978;28;20125;-74
2021/03/22 12:25:27;;;;;;;9.00;8.20;;;6.60;99.90;;;;;;5005661;28;20074;-76
2021/03/22 12:27:54;;;;;;;7.53;6.93;;;6.50;99.90;;;;;;5005218;28;20046;-77
2021/03/22 12:30:23;;;;;;;6.85;6.32;;;6.50;99.90;;;;;;5002766;28;20050;-77
2021/03/22 12:32:50;;;;;;;7.90;7.28;;;6.40;99.90;;;;;;4982373;28;20034;-76
2021/03/22 12:35:26;;;;;;;7.25;6.82;;;6.10;99.90;;;;;;4982922;28;20173;-76
2021/03/22 12:37:53;;;;;;;7.90;7.25;;;6.00;99.90;;;;;;4984578;28;20140;-75
2021/03/22 12:40:21;;;;;;;7.80;7.10;;;6.20;99.90;;;;;;5001523;28;20422;-76
2021/03/22 12:42:53;;;;;;;7.28;6.57;;;6.20;99.90;;;;;;5001746;28;20050;-76
2021/03/22 12:45:37;;;;;;;7.18;6.50;;;6.10;99.90;;;;;;4999440;28;20051;-76
2021/03/22 12:48:05;;;;;;;8.27;7.15;;;5.90;99.90;;;;;;4984773;28;20540;-78
2021/03/22 12:50:37;;;;;;;7.07;6.47;;;5.90;99.90;;;;;;5000810;28;20373;-76
2021/03/22 12:53:04;;;;;;;6.57;5.70;;;6.00;99.90;;;;;;5004900;28;20741;-78
2021/03/22 12:55:31;;;;;;;7.13;6.40;;;6.10;99.90;;;;;;4987667;28;20125;-75
2021/03/22 12:58:01;;;;;;;7.38;6.68;;;6.10;99.90;;;;;;4987959;28;20046;-76
2021/03/22 13:00:29;;;;;;;6.97;6.38;;;6.10;99.90;;;;;;4986556;28;20117;-76
2021/03/22 13:02:59;;;;;;;7.53;6.93;;;6.10;99.90;;;;;;4994387;28;20491;-76
2021/03/22 13:05:31;;;;;;;8.27;7.40;;;6.20;99.90;;;;;;4999795;28;20255;-76
2021/03/22 13:07:58;;;;;;;7.70;7.00;;;6.30;99.90;;;;;;5001731;28;20054;-77
2021/03/22 13:10:32;;;;;;;7.97;7.25;;;6.30;99.90;;;;;;5003327;28;20040;-77
2021/03/22 13:13:01;;;;;;;8.25;7.45;;;6.10;99.90;;;;;;4987603;28;20088;-78
2021/03/22 13:15:54;;;;;;;8.48;7.78;;;6.00;99.90;;;;;;4989241;28;20652;-75
2021/03/22 13:18:24;;;;;;;9.90;8.40;;;5.90;99.90;;;;;;5004174;28;20112;-76
2021/03/22 13:20:56;;;;;;;14.68;7.60;;;5.70;99.90;;;;;;5007044;28;20517;-77
2021/03/22 13:23:24;;;;;;;7.07;6.47;;;5.60;99.90;;;;;;4991390;28;20050;-76
2021/03/22 13:25:51;;;;;;;7.68;7.07;;;5.60;99.90;;;;;;4990478;28;20202;-76
2021/03/22 13:28:26;;;;;;;9.52;6.75;;;5.60;99.90;;;;;;5008205;28;20093;-75